createdAt,value
2018-08-09T00:00:47.871Z,595.7
2018-08-09T00:01:49.779Z,595.8
2018-08-09T00:02:52.220Z,595.7
2018-08-09T00:03:54.398Z,595.9
2018-08-09T00:04:56.572Z,595.8
2018-08-09T00:05:59.017Z,596
2018-08-09T00:07:01.187Z,595.7
2018-08-09T00:08:03.093Z,595.7
2018-08-09T00:09:05.266Z,595.8
2018-08-09T00:10:07.447Z,596
2018-08-09T00:11:09.651Z,595.9
2018-08-09T00:12:11.541Z,596.2
2018-08-09T00:13:13.979Z,596.1
2018-08-09T00:14:16.164Z,596.4
2018-08-09T00:15:18.350Z,596.6
2018-08-09T00:16:20.784Z,596.9
2018-08-09T00:17:22.957Z,597.1
2018-08-09T00:18:25.402Z,597
2018-08-09T00:19:27.866Z,596.8
2018-08-09T00:20:30.327Z,597.2
2018-08-09T00:21:32.506Z,597.1
2018-08-09T00:22:34.962Z,597.2
2018-08-09T00:23:37.144Z,597
2018-08-09T00:24:39.605Z,597.1
2018-08-09T00:25:42.051Z,596.9
2018-08-09T00:26:43.935Z,597.1
2018-08-09T00:27:45.818Z,597.1
2018-08-09T00:28:47.448Z,597.3
2018-08-09T00:29:49.350Z,597.7
2018-08-09T00:30:51.532Z,597.9
2018-08-09T00:31:53.982Z,598.2
2018-08-09T00:32:56.435Z,598.4
2018-08-09T00:33:58.614Z,598.5
2018-08-09T00:35:01.067Z,598.8
2018-08-09T00:36:03.003Z,598.7
2018-08-09T00:37:05.207Z,598.7
2018-08-09T00:38:07.647Z,599.1
2018-08-09T00:39:10.090Z,598.9
2018-08-09T00:40:12.286Z,599.4
2018-08-09T00:41:14.728Z,599.8
2018-08-09T00:42:16.597Z,599.7
2018-08-09T00:43:19.089Z,599.9
2018-08-09T00:44:21.257Z,599.6
2018-08-09T00:45:23.697Z,600.4
2018-08-09T00:46:26.148Z,600
2018-08-09T00:47:28.041Z,600.6
2018-08-09T00:48:29.674Z,600.7
2018-08-09T00:49:31.856Z,600.8
2018-08-09T00:50:34.028Z,600.6
2018-08-09T00:51:36.476Z,601.6
2018-08-09T00:52:38.937Z,601.4
2018-08-09T00:53:41.391Z,601.8
2018-08-09T00:54:43.827Z,602.3
2018-08-09T00:55:45.986Z,602.2
2018-08-09T00:56:48.437Z,602.3
2018-08-09T00:57:50.887Z,602.2
2018-08-09T00:58:53.327Z,602.2
2018-08-09T00:59:55.493Z,602.2
2018-08-09T01:00:57.677Z,602.4
2018-08-09T01:02:00.118Z,602.6
2018-08-09T01:03:02.037Z,602.4
2018-08-09T01:04:04.490Z,602.4
2018-08-09T01:05:06.404Z,602.6
2018-08-09T01:06:08.844Z,602.5
2018-08-09T01:07:11.025Z,602.4
2018-08-09T01:08:12.925Z,602.7
2018-08-09T01:09:14.839Z,603
2018-08-09T01:10:17.292Z,602.5
2018-08-09T01:11:19.500Z,602.6
2018-08-09T01:12:21.392Z,602.4
2018-08-09T01:13:23.837Z,602.3
2018-08-09T01:14:26.018Z,602.4
2018-08-09T01:15:28.459Z,602.5
2018-08-09T01:16:30.923Z,602.3
2018-08-09T01:17:33.107Z,602.7
2018-08-09T01:18:35.261Z,602.6
2018-08-09T01:19:37.716Z,603.1
2018-08-09T01:20:39.611Z,603.1
2018-08-09T01:21:42.071Z,603.5
2018-08-09T01:22:44.511Z,603.5
2018-08-09T01:23:46.953Z,603.8
2018-08-09T01:24:49.137Z,603.8
2018-08-09T01:25:51.601Z,603.9
2018-08-09T01:26:53.773Z,603.8
2018-08-09T01:27:55.955Z,603.7
2018-08-09T01:28:57.877Z,603.9
2018-08-09T01:30:00.060Z,603.5
2018-08-09T01:31:01.682Z,603.6
2018-08-09T01:32:04.120Z,603.6
2018-08-09T01:33:06.010Z,603.5
2018-08-09T01:34:08.203Z,603.4
2018-08-09T01:35:10.407Z,603.6
2018-08-09T01:36:12.602Z,603.3
2018-08-09T01:37:14.750Z,603.6
2018-08-09T01:38:16.364Z,602.9
2018-08-09T01:39:18.796Z,603.2
2018-08-09T01:40:20.971Z,603
2018-08-09T01:41:22.882Z,603.1
2018-08-09T01:42:25.058Z,603
2018-08-09T01:43:26.944Z,603
2018-08-09T01:44:28.868Z,602.7
2018-08-09T01:45:31.306Z,602.9
2018-08-09T01:46:33.496Z,603
2018-08-09T01:47:35.669Z,603.1
2018-08-09T01:48:37.821Z,603.2
2018-08-09T01:49:40.002Z,603
2018-08-09T01:50:42.458Z,603
2018-08-09T01:51:44.636Z,602.6
2018-08-09T01:52:47.080Z,602.4
2018-08-09T01:53:49.527Z,602.5
2018-08-09T01:54:51.436Z,602.3
2018-08-09T01:55:53.892Z,602.6
2018-08-09T01:56:56.080Z,602.6
2018-08-09T01:57:58.506Z,602.4
2018-08-09T01:59:00.688Z,602.6
2018-08-09T02:00:02.866Z,602.1
2018-08-09T02:01:05.056Z,602.2
2018-08-09T02:02:07.235Z,602.2
2018-08-09T02:03:09.135Z,602.4
2018-08-09T02:04:11.586Z,602.2
2018-08-09T02:05:14.041Z,602.4
2018-08-09T02:06:16.355Z,602.2
2018-08-09T02:07:18.283Z,602.1
2018-08-09T02:08:20.451Z,602.2
2018-08-09T02:09:22.636Z,602.3
2018-08-09T02:10:24.818Z,602.4
2018-08-09T02:11:27.281Z,602.5
2018-08-09T02:12:29.716Z,602.8
2018-08-09T02:13:32.173Z,602.8
2018-08-09T02:14:34.605Z,602.9
2018-08-09T02:15:36.484Z,603.2
2018-08-09T02:16:38.655Z,603.5
2018-08-09T02:17:41.110Z,603.1
2018-08-09T02:18:43.559Z,603.2
2018-08-09T02:19:45.997Z,603.5
2018-08-09T02:20:47.890Z,603.4
2018-08-09T02:21:49.758Z,603.5
2018-08-09T02:22:51.938Z,603.1
2018-08-09T02:23:53.828Z,603.4
2018-08-09T02:24:55.730Z,603.6
2018-08-09T02:25:57.907Z,603.6
2018-08-09T02:27:00.099Z,603.7
2018-08-09T02:28:02.277Z,604
2018-08-09T02:29:04.446Z,603.7
2018-08-09T02:30:06.904Z,603.6
2018-08-09T02:31:09.364Z,603.6
2018-08-09T02:32:11.545Z,603.5
2018-08-09T02:33:14.005Z,603.7
2018-08-09T02:34:16.437Z,603.6
2018-08-09T02:35:18.663Z,603.9
2018-08-09T02:36:21.111Z,604.2
2018-08-09T02:37:23.566Z,604.1
2018-08-09T02:38:26.011Z,604.2
2018-08-09T02:39:28.460Z,604.5
2018-08-09T02:40:30.612Z,604.2
2018-08-09T02:41:32.790Z,604.3
2018-08-09T02:42:35.227Z,604.1
2018-08-09T02:43:37.111Z,604.3
2018-08-09T02:44:39.291Z,604.2
2018-08-09T02:45:41.770Z,604.6
2018-08-09T02:46:44.230Z,604.9
2018-08-09T02:47:46.135Z,604.7
2018-08-09T02:48:48.345Z,605.1
2018-08-09T02:49:50.839Z,605.3
2018-08-09T02:50:52.727Z,605
2018-08-09T02:51:54.918Z,605.2
2018-08-09T02:52:57.088Z,604.9
2018-08-09T02:53:58.698Z,604.7
2018-08-09T02:55:00.622Z,604.9
2018-08-09T02:56:03.078Z,605.1
2018-08-09T02:57:05.259Z,605.2
2018-08-09T02:58:07.466Z,605
2018-08-09T02:59:09.624Z,604.8
2018-08-09T03:00:12.079Z,604.9
2018-08-09T03:01:14.246Z,604.9
2018-08-09T03:02:16.128Z,605.2
2018-08-09T03:03:18.023Z,605.1
2018-08-09T03:04:20.484Z,605.5
2018-08-09T03:05:22.933Z,605.2
2018-08-09T03:06:25.078Z,605.7
2018-08-09T03:07:27.007Z,605.7
2018-08-09T03:08:29.466Z,605.6
2018-08-09T03:09:31.622Z,605.4
2018-08-09T03:10:34.080Z,605.6
2018-08-09T03:11:36.524Z,605.6
2018-08-09T03:12:38.717Z,605.4
2018-08-09T03:13:41.166Z,605
2018-08-09T03:14:43.040Z,605.3
2018-08-09T03:15:45.215Z,605.4
2018-08-09T03:16:47.399Z,605.3
2018-08-09T03:17:49.571Z,605.5
2018-08-09T03:18:51.482Z,605.5
2018-08-09T03:19:53.380Z,605.9
2018-08-09T03:20:55.018Z,605.9
2018-08-09T03:21:56.941Z,606
2018-08-09T03:22:59.386Z,605.9
2018-08-09T03:24:01.843Z,606.1
2018-08-09T03:25:04.287Z,606.6
2018-08-09T03:26:06.456Z,606.2
2018-08-09T03:27:08.335Z,606
2018-08-09T03:28:10.239Z,606
2018-08-09T03:29:12.417Z,605.8
2018-08-09T03:30:14.311Z,605.8
2018-08-09T03:31:16.477Z,606.1
2018-08-09T03:32:18.384Z,606.3
2018-08-09T03:33:20.547Z,606.4
2018-08-09T03:34:22.709Z,606.7
2018-08-09T03:35:25.148Z,606.3
2018-08-09T03:36:27.069Z,606.7
2018-08-09T03:37:28.966Z,606.3
2018-08-09T03:38:31.419Z,606.4
2018-08-09T03:39:33.567Z,606.5
2018-08-09T03:40:35.756Z,606
2018-08-09T03:41:38.201Z,606.3
2018-08-09T03:42:40.361Z,606.7
2018-08-09T03:43:42.833Z,606.9
2018-08-09T03:44:45.008Z,606.5
2018-08-09T03:45:47.173Z,607.2
2018-08-09T03:46:49.052Z,607.2
2018-08-09T03:47:51.490Z,607.1
2018-08-09T03:48:53.929Z,607.3
2018-08-09T03:49:55.817Z,607.3
2018-08-09T03:50:57.993Z,607
2018-08-09T03:51:59.621Z,606.8
2018-08-09T03:53:02.064Z,606.6
2018-08-09T03:54:03.696Z,606.5
2018-08-09T03:55:05.597Z,606.8
2018-08-09T03:56:08.044Z,606.8
2018-08-09T03:57:10.212Z,606.8
2018-08-09T03:58:12.190Z,606.8
2018-08-09T03:59:13.764Z,606.8
2018-08-09T04:00:15.636Z,606.5
2018-08-09T04:01:17.810Z,606.8
2018-08-09T04:02:19.689Z,606.7
2018-08-09T04:03:21.876Z,606.4
2018-08-09T04:04:24.048Z,606.6
2018-08-09T04:05:26.215Z,606.5
2018-08-09T04:06:28.366Z,606.9
2018-08-09T04:07:30.826Z,606.6
2018-08-09T04:08:33.289Z,606.6
2018-08-09T04:09:35.473Z,606.8
2018-08-09T04:10:37.653Z,606.4
2018-08-09T04:11:40.315Z,606
2018-08-09T04:12:42.114Z,606.4
2018-08-09T04:13:44.294Z,606
2018-08-09T04:14:46.469Z,605.8
2018-08-09T04:15:48.918Z,605.6
2018-08-09T04:16:51.057Z,605.8
2018-08-09T04:17:53.700Z,605.6
2018-08-09T04:18:55.848Z,605.2
2018-08-09T04:19:57.745Z,605.4
2018-08-09T04:20:59.921Z,605.3
2018-08-09T04:22:01.819Z,605.4
2018-08-09T04:23:03.697Z,605.3
2018-08-09T04:24:06.164Z,605.2
2018-08-09T04:25:08.339Z,605.2
2018-08-09T04:26:10.787Z,604.9
2018-08-09T04:27:12.128Z,605.3
2018-08-09T04:28:14.569Z,604.8
2018-08-09T04:29:16.731Z,604.8
2018-08-09T04:30:18.914Z,604.8
2018-08-09T04:31:21.357Z,604.9
2018-08-09T04:32:23.550Z,605.1
2018-08-09T04:33:26.003Z,605
2018-08-09T04:34:28.450Z,605.4
2018-08-09T04:35:30.610Z,605
2018-08-09T04:36:33.056Z,605.1
2018-08-09T04:37:35.495Z,605.1
2018-08-09T04:38:37.677Z,605.1
2018-08-09T04:39:39.853Z,605.1
2018-08-09T04:40:42.297Z,605.2
2018-08-09T04:41:44.481Z,605.5
2018-08-09T04:42:46.372Z,605.2
2018-08-09T04:43:48.547Z,605.5
2018-08-09T04:44:51.021Z,605.4
2018-08-09T04:45:53.475Z,605.4
2018-08-09T04:46:55.924Z,605.1
2018-08-09T04:47:58.097Z,605.2
2018-08-09T04:49:00.604Z,604.9
2018-08-09T04:50:03.052Z,604.7
2018-08-09T04:51:05.239Z,604.9
2018-08-09T04:52:07.416Z,604.5
2018-08-09T04:53:09.870Z,604.5
2018-08-09T04:54:12.038Z,603.9
2018-08-09T04:55:14.485Z,604
2018-08-09T04:56:16.949Z,604.2
2018-08-09T04:57:18.824Z,604.1
2018-08-09T04:58:21.493Z,603.8
2018-08-09T04:59:23.983Z,603.3
2018-08-09T05:00:26.169Z,603.5
2018-08-09T05:01:28.337Z,603.3
2018-08-09T05:02:30.793Z,602.9
2018-08-09T05:03:32.969Z,603.2
2018-08-09T05:04:35.130Z,603
2018-08-09T05:05:37.040Z,603.1
2018-08-09T05:06:39.498Z,603.4
2018-08-09T05:07:41.680Z,603.3
2018-08-09T05:08:44.118Z,603.7
2018-08-09T05:09:46.574Z,603.7
2018-08-09T05:10:48.479Z,603.5
2018-08-09T05:11:50.657Z,603.2
2018-08-09T05:12:52.840Z,603.5
2018-08-09T05:13:55.015Z,603.7
2018-08-09T05:14:57.471Z,603.4
2018-08-09T05:15:59.812Z,603
2018-08-09T05:17:01.737Z,602.7
2018-08-09T05:18:03.633Z,602.7
2018-08-09T05:19:06.076Z,602.5
2018-08-09T05:20:08.243Z,602.7
2018-08-09T05:21:10.417Z,602.9
2018-08-09T05:22:12.597Z,603.3
2018-08-09T05:23:14.816Z,603.2
2018-08-09T05:24:16.731Z,603.4
2018-08-09T05:25:18.613Z,603.1
2018-08-09T05:26:20.863Z,603.5
2018-08-09T05:27:23.027Z,603.4
2018-08-09T05:28:25.216Z,602.8
2018-08-09T05:29:27.479Z,603.4
2018-08-09T05:30:29.978Z,603.4
2018-08-09T05:31:31.897Z,603.3
2018-08-09T05:32:33.788Z,603
2018-08-09T05:33:36.241Z,602.9
2018-08-09T05:34:38.683Z,603.1
2018-08-09T05:35:40.861Z,602.3
2018-08-09T05:36:42.747Z,602.6
2018-08-09T05:37:44.915Z,602.7
2018-08-09T05:38:47.084Z,602.8
2018-08-09T05:39:48.988Z,603
2018-08-09T05:40:51.448Z,603.3
2018-08-09T05:41:53.623Z,603.1
2018-08-09T05:42:55.791Z,602.9
2018-08-09T05:43:58.245Z,602.4
2018-08-09T05:45:00.126Z,602.7
2018-08-09T05:46:02.585Z,602.5
2018-08-09T05:47:04.765Z,602.4
2018-08-09T05:48:06.953Z,602.4
2018-08-09T05:49:09.420Z,602
2018-08-09T05:50:11.662Z,602.5
2018-08-09T05:51:13.853Z,602.1
2018-08-09T05:52:16.073Z,602
2018-08-09T05:53:18.863Z,601.9
2018-08-09T05:54:20.404Z,601.8
2018-08-09T05:55:22.586Z,601.9
2018-08-09T05:56:25.051Z,601.6
2018-08-09T05:57:27.199Z,601.5
2018-08-09T05:58:29.938Z,601.5
2018-08-09T05:59:32.044Z,601.6
2018-08-09T06:00:34.546Z,601.2
2018-08-09T06:01:36.715Z,601.6
2018-08-09T06:02:38.892Z,601.3
2018-08-09T06:03:41.076Z,601.6
2018-08-09T06:04:42.973Z,601.7
2018-08-09T06:05:45.629Z,601.6
2018-08-09T06:06:48.148Z,601.4
2018-08-09T06:07:50.307Z,602.1
2018-08-09T06:08:52.487Z,601.6
2018-08-09T06:09:54.943Z,601.6
2018-08-09T06:10:57.131Z,601.5
2018-08-09T06:11:58.761Z,601.5
2018-08-09T06:13:01.212Z,601.7
2018-08-09T06:14:03.390Z,601.4
2018-08-09T06:15:05.551Z,600.9
2018-08-09T06:16:07.698Z,601.1
2018-08-09T06:17:10.146Z,600.9
2018-08-09T06:18:12.332Z,601
2018-08-09T06:19:14.512Z,600.9
2018-08-09T06:20:16.961Z,600.9
2018-08-09T06:21:19.126Z,600.8
2018-08-09T06:22:21.302Z,601.1
2018-08-09T06:23:23.742Z,600.7
2018-08-09T06:24:26.220Z,600.6
2018-08-09T06:25:28.676Z,600.7
2018-08-09T06:26:30.854Z,600.6
2018-08-09T06:27:32.809Z,600.7
2018-08-09T06:28:34.527Z,600.6
2018-08-09T06:29:37.066Z,600.8
2018-08-09T06:30:39.503Z,600.9
2018-08-09T06:31:41.971Z,601.4
2018-08-09T06:32:44.134Z,601
2018-08-09T06:33:46.046Z,601.2
2018-08-09T06:34:48.529Z,600.9
2018-08-09T06:35:50.976Z,601.1
2018-08-09T06:36:53.441Z,601.1
2018-08-09T06:37:55.887Z,601.3
2018-08-09T06:38:58.076Z,601.3
2018-08-09T06:40:00.254Z,601.2
2018-08-09T06:41:02.445Z,601.5
2018-08-09T06:42:04.917Z,601.2
2018-08-09T06:43:07.375Z,601.3
2018-08-09T06:44:09.297Z,601.3
2018-08-09T06:45:10.966Z,601.2
2018-08-09T06:46:12.881Z,601.4
2018-08-09T06:47:15.065Z,601.2
2018-08-09T06:48:17.513Z,601.2
2018-08-09T06:49:19.674Z,601.2
2018-08-09T06:50:21.853Z,600.9
2018-08-09T06:51:24.031Z,600.9
2018-08-09T06:52:25.963Z,601
2018-08-09T06:53:28.423Z,600.6
2018-08-09T06:54:30.868Z,600.5
2018-08-09T06:55:33.319Z,600.8
2018-08-09T06:56:35.525Z,600.9
2018-08-09T06:57:37.966Z,600.7
2018-08-09T06:58:40.163Z,600.4
2018-08-09T06:59:42.061Z,600.6
2018-08-09T07:00:44.247Z,600.7
2018-08-09T07:01:46.691Z,601.1
2018-08-09T07:02:48.588Z,601.1
2018-08-09T07:03:51.032Z,601.2
2018-08-09T07:04:53.477Z,601
2018-08-09T07:05:55.672Z,601.1
2018-08-09T07:06:58.481Z,601.5
2018-08-09T07:08:00.975Z,601.3
2018-08-09T07:09:03.151Z,601.6
2018-08-09T07:10:05.303Z,601.2
2018-08-09T07:11:07.749Z,601.1
2018-08-09T07:12:09.896Z,601.4
2018-08-09T07:13:12.048Z,601.6
2018-08-09T07:14:14.489Z,601.9
2018-08-09T07:15:16.950Z,601.5
2018-08-09T07:16:19.391Z,601.7
2018-08-09T07:17:21.569Z,601.8
2018-08-09T07:18:24.025Z,601.7
2018-08-09T07:19:25.913Z,601.9
2018-08-09T07:20:27.788Z,601.9
2018-08-09T07:21:30.327Z,601.9
2018-08-09T07:22:32.524Z,602.3
2018-08-09T07:23:34.166Z,601.6
2018-08-09T07:24:36.365Z,602.3
2018-08-09T07:25:38.541Z,602
2018-08-09T07:26:40.986Z,602.5
2018-08-09T07:27:43.183Z,602.3
2018-08-09T07:28:45.109Z,602.3
2018-08-09T07:29:47.565Z,602.1
2018-08-09T07:30:49.769Z,602
2018-08-09T07:31:51.923Z,601.7
2018-08-09T07:32:54.112Z,602
2018-08-09T07:33:56.769Z,602
2018-08-09T07:34:59.198Z,602
2018-08-09T07:36:01.101Z,601.9
2018-08-09T07:37:03.557Z,601.8
2018-08-09T07:38:05.706Z,602.1
2018-08-09T07:39:08.160Z,602.4
2018-08-09T07:40:10.073Z,602.2
2018-08-09T07:41:11.688Z,601.9
2018-08-09T07:42:13.887Z,602.2
2018-08-09T07:43:16.089Z,602.1
2018-08-09T07:44:18.251Z,601.9
2018-08-09T07:45:20.701Z,601.9
2018-08-09T07:46:23.162Z,602.1
2018-08-09T07:47:24.780Z,602
2018-08-09T07:48:26.815Z,602.3
2018-08-09T07:49:29.381Z,602.2
2018-08-09T07:50:31.582Z,602.2
2018-08-09T07:51:34.022Z,602.8
2018-08-09T07:52:36.201Z,602.2
2018-08-09T07:53:38.382Z,602.8
2018-08-09T07:54:40.572Z,602.6
2018-08-09T07:55:42.747Z,602.7
2018-08-09T07:56:45.195Z,602.9
2018-08-09T07:57:46.836Z,603.2
2018-08-09T07:58:49.312Z,602.9
2018-08-09T07:59:51.757Z,603
2018-08-09T08:00:53.979Z,602.9
2018-08-09T08:01:56.429Z,603
2018-08-09T08:02:58.602Z,603.4
2018-08-09T08:04:00.787Z,603.7
2018-08-09T08:05:03.244Z,603.9
2018-08-09T08:06:05.611Z,604.3
2018-08-09T08:07:08.118Z,604
2018-08-09T08:08:10.277Z,604.3
2018-08-09T08:09:12.447Z,604.4
2018-08-09T08:10:14.894Z,604
2018-08-09T08:11:17.090Z,604.1
2018-08-09T08:12:19.259Z,604.3
2018-08-09T08:13:21.436Z,603.8
2018-08-09T08:14:23.614Z,604.1
2018-08-09T08:15:25.794Z,604
2018-08-09T08:16:28.245Z,604.5
2018-08-09T08:17:30.382Z,604.4
2018-08-09T08:18:32.577Z,604.8
2018-08-09T08:19:34.477Z,605.3
2018-08-09T08:20:37.136Z,605.1
2018-08-09T08:21:39.369Z,605
2018-08-09T08:22:41.832Z,605.4
2018-08-09T08:23:44.280Z,605.2
2018-08-09T08:24:46.169Z,605.5
2018-08-09T08:25:48.362Z,605.7
2018-08-09T08:26:51.360Z,605.6
2018-08-09T08:27:53.547Z,605.7
2018-08-09T08:28:55.154Z,605.6
2018-08-09T08:29:57.620Z,605.4
2018-08-09T08:31:00.056Z,605.5
2018-08-09T08:32:02.226Z,605.4
2018-08-09T08:33:04.371Z,605.5
2018-08-09T08:34:06.545Z,605.6
2018-08-09T08:35:08.735Z,605.7
2018-08-09T08:36:10.922Z,605.7
2018-08-09T08:37:13.367Z,606
2018-08-09T08:38:15.553Z,606.2
2018-08-09T08:39:18.011Z,606.2
2018-08-09T08:40:19.937Z,606.2
2018-08-09T08:41:22.787Z,606.8
2018-08-09T08:42:24.903Z,606.8
2018-08-09T08:43:26.504Z,607
2018-08-09T08:44:28.960Z,606.8
2018-08-09T08:45:31.402Z,607.4
2018-08-09T08:46:33.574Z,607.1
2018-08-09T08:47:35.564Z,607
2018-08-09T08:48:38.012Z,607.1
2018-08-09T08:49:40.199Z,607.5
2018-08-09T08:50:42.370Z,607.5
2018-08-09T08:51:44.535Z,607.2
2018-08-09T08:52:46.702Z,607.7
2018-08-09T08:53:49.139Z,607.7
2018-08-09T08:54:51.011Z,607.8
2018-08-09T08:55:53.201Z,608.1
2018-08-09T08:56:55.078Z,608.2
2018-08-09T08:57:57.250Z,608.4
2018-08-09T08:58:59.419Z,608.7
2018-08-09T09:00:01.584Z,608.6
2018-08-09T09:01:04.521Z,608.6
2018-08-09T09:02:06.747Z,609.1
2018-08-09T09:03:08.696Z,609.2
2018-08-09T09:04:11.274Z,609.7
2018-08-09T09:05:14.098Z,609.6
2018-08-09T09:06:16.656Z,609.4
2018-08-09T09:07:18.577Z,610.1
2018-08-09T09:08:21.031Z,609.9
2018-08-09T09:09:23.237Z,610.1
2018-08-09T09:10:25.141Z,609.9
2018-08-09T09:11:27.583Z,609.8
2018-08-09T09:12:30.045Z,610.1
2018-08-09T09:13:32.499Z,610.1
2018-08-09T09:14:34.390Z,610.6
2018-08-09T09:15:36.565Z,610.6
2018-08-09T09:16:38.743Z,610.6
2018-08-09T09:17:41.188Z,610.6
2018-08-09T09:18:43.633Z,610.9
2018-08-09T09:19:45.801Z,610.7
2018-08-09T09:20:47.983Z,610.7
2018-08-09T09:21:50.198Z,610.9
2018-08-09T09:22:52.363Z,611.2
2018-08-09T09:23:54.543Z,611.3
2018-08-09T09:24:56.691Z,611.3
2018-08-09T09:25:58.863Z,611.4
2018-08-09T09:27:01.638Z,611.2
2018-08-09T09:28:03.868Z,611.2
2018-08-09T09:29:06.051Z,611
2018-08-09T09:30:08.196Z,611.1
2018-08-09T09:31:10.383Z,611
2018-08-09T09:32:12.835Z,611
2018-08-09T09:33:15.291Z,610.9
2018-08-09T09:34:17.746Z,611
2018-08-09T09:35:19.919Z,610.8
2018-08-09T09:36:22.369Z,610.6
2018-08-09T09:37:24.007Z,610.8
2018-08-09T09:38:25.936Z,611
2018-08-09T09:39:27.848Z,611.2
2018-08-09T09:40:29.747Z,611.3
2018-08-09T09:41:31.634Z,611
2018-08-09T09:42:33.804Z,611
2018-08-09T09:43:36.266Z,611
2018-08-09T09:44:38.725Z,610.9
2018-08-09T09:45:40.914Z,610.7
2018-08-09T09:46:43.363Z,610.5
2018-08-09T09:47:45.568Z,610.2
2018-08-09T09:48:48.057Z,610
2018-08-09T09:49:50.429Z,610
2018-08-09T09:50:52.390Z,610.1
2018-08-09T09:51:54.834Z,610.4
2018-08-09T09:52:57.016Z,610.4
2018-08-09T09:53:59.208Z,610.9
2018-08-09T09:55:01.982Z,611.3
2018-08-09T09:56:04.351Z,611.2
2018-08-09T09:57:06.845Z,611.1
2018-08-09T09:58:09.293Z,611.5
2018-08-09T09:59:11.747Z,611.4
2018-08-09T10:00:13.927Z,611.1
2018-08-09T10:01:16.377Z,611.4
2018-08-09T10:02:18.568Z,611.7
2018-08-09T10:03:20.741Z,611.7
2018-08-09T10:04:23.186Z,612
2018-08-09T10:05:25.339Z,612.2
2018-08-09T10:06:27.517Z,611.7
2018-08-09T10:07:29.695Z,612.2
2018-08-09T10:08:32.177Z,612.1
2018-08-09T10:09:34.382Z,612.2
2018-08-09T10:10:36.883Z,612.4
2018-08-09T10:11:39.064Z,612.4
2018-08-09T10:12:41.365Z,612.5
2018-08-09T10:13:42.999Z,612.7
2018-08-09T10:14:45.602Z,612.4
2018-08-09T10:15:47.834Z,612.8
2018-08-09T10:16:49.710Z,612.7
2018-08-09T10:17:51.890Z,612.7
2018-08-09T10:18:54.354Z,613
2018-08-09T10:19:56.540Z,613.5
2018-08-09T10:20:58.990Z,613.5
2018-08-09T10:22:01.456Z,613.8
2018-08-09T10:23:03.648Z,614.3
2018-08-09T10:24:06.101Z,614
2018-08-09T10:25:07.748Z,614.4
2018-08-09T10:26:10.231Z,614.1
2018-08-09T10:27:12.393Z,614.2
2018-08-09T10:28:14.827Z,614.2
2018-08-09T10:29:17.027Z,613.9
2018-08-09T10:30:19.203Z,614.5
2018-08-09T10:31:20.537Z,615
2018-08-09T10:32:22.426Z,615.1
2018-08-09T10:33:24.610Z,615
2018-08-09T10:34:26.776Z,614.9
2018-08-09T10:35:29.102Z,615.2
2018-08-09T10:36:30.977Z,615.3
2018-08-09T10:37:33.155Z,615.2
2018-08-09T10:38:35.620Z,615
2018-08-09T10:39:37.787Z,615.3
2018-08-09T10:40:39.969Z,615.1
2018-08-09T10:41:42.417Z,615.5
2018-08-09T10:42:45.194Z,615.2
2018-08-09T10:43:47.132Z,615.9
2018-08-09T10:44:49.340Z,615.7
2018-08-09T10:45:51.794Z,616
2018-08-09T10:46:53.725Z,616.1
2018-08-09T10:48:10.568Z,616
2018-08-09T10:49:12.740Z,616
2018-08-09T10:50:15.196Z,616.1
2018-08-09T10:51:17.076Z,616.5
2018-08-09T10:52:18.965Z,616.4
2018-08-09T10:53:21.149Z,616.4
2018-08-09T10:54:23.334Z,616.9
2018-08-09T10:55:25.234Z,616.7
2018-08-09T10:56:27.109Z,616.7
2018-08-09T10:57:29.008Z,616.8
2018-08-09T10:58:31.477Z,617.2
2018-08-09T10:59:33.664Z,617.1
2018-08-09T11:00:36.112Z,617.1
2018-08-09T11:01:38.378Z,617
2018-08-09T11:02:40.808Z,617.2
2018-08-09T11:03:42.987Z,617.5
2018-08-09T11:04:45.432Z,617.7
2018-08-09T11:05:47.624Z,617.9
2018-08-09T11:06:50.074Z,618.1
2018-08-09T11:07:52.258Z,618.1
2018-08-09T11:08:54.711Z,617.8
2018-08-09T11:09:56.883Z,617.5
2018-08-09T11:10:59.076Z,618
2018-08-09T11:12:01.518Z,618.2
2018-08-09T11:13:03.971Z,617.8
2018-08-09T11:14:06.163Z,618.3
2018-08-09T11:15:08.602Z,618.2
2018-08-09T11:16:10.787Z,618.9
2018-08-09T11:17:12.982Z,619.1
2018-08-09T11:18:15.421Z,619.1
2018-08-09T11:19:17.881Z,619.6
2018-08-09T11:20:20.064Z,619.5
2018-08-09T11:21:22.500Z,619.5
2018-08-09T11:22:24.966Z,619.4
2018-08-09T11:23:27.131Z,619.2
2018-08-09T11:24:29.307Z,619.3
2018-08-09T11:25:31.445Z,619.6
2018-08-09T11:26:33.086Z,619.1
2018-08-09T11:27:34.968Z,619.3
2018-08-09T11:28:37.418Z,618.8
2018-08-09T11:29:39.599Z,619
2018-08-09T11:30:42.051Z,618.8
2018-08-09T11:31:44.521Z,618.9
2018-08-09T11:32:46.977Z,618.8
2018-08-09T11:33:49.427Z,618.7
2018-08-09T11:34:51.607Z,618.6
2018-08-09T11:35:53.791Z,618.3
2018-08-09T11:36:56.244Z,618.4
2018-08-09T11:37:58.698Z,618.1
2018-08-09T11:39:00.868Z,618.3
2018-08-09T11:40:17.972Z,618.5
2018-08-09T11:41:19.867Z,619.1
2018-08-09T11:42:21.766Z,619.3
2018-08-09T11:43:23.661Z,619.5
2018-08-09T11:44:25.844Z,619.5
2018-08-09T11:45:28.030Z,619.6
2018-08-09T11:46:30.207Z,619.5
2018-08-09T11:47:32.128Z,619.3
2018-08-09T11:48:34.338Z,618.7
2018-08-09T11:49:35.959Z,618.8
2018-08-09T11:50:38.135Z,619.3
2018-08-09T11:51:40.324Z,618.8
2018-08-09T11:52:42.775Z,618.6
2018-08-09T11:53:45.235Z,618.8
2018-08-09T11:54:47.678Z,619.2
2018-08-09T11:55:49.853Z,619.2
2018-08-09T11:56:52.102Z,619.7
2018-08-09T11:57:54.260Z,619.9
2018-08-09T11:58:56.431Z,620
2018-08-09T11:59:58.883Z,620.3
2018-08-09T12:01:01.363Z,620.3
2018-08-09T12:02:03.813Z,620
2018-08-09T12:03:06.246Z,620.4
2018-08-09T12:04:08.149Z,620.1
2018-08-09T12:05:10.397Z,620
2018-08-09T12:06:12.839Z,620
2018-08-09T12:07:14.956Z,619.3
2018-08-09T12:08:17.124Z,619.6
2018-08-09T12:09:18.825Z,619.6
2018-08-09T12:10:21.265Z,620.2
2018-08-09T12:11:23.713Z,620.2
2018-08-09T12:12:26.174Z,620.3
2018-08-09T12:13:28.817Z,620.3
2018-08-09T12:14:30.714Z,620.7
2018-08-09T12:15:32.900Z,620.8
2018-08-09T12:16:35.064Z,620.3
2018-08-09T12:17:37.524Z,620.9
2018-08-09T12:18:39.712Z,621
2018-08-09T12:19:41.905Z,621.1
2018-08-09T12:20:44.822Z,621.5
2018-08-09T12:21:47.057Z,621.8
2018-08-09T12:22:48.986Z,621.8
2018-08-09T12:23:51.438Z,621.9
2018-08-09T12:24:53.338Z,621.7
2018-08-09T12:25:55.787Z,621.8
2018-08-09T12:26:57.892Z,621.7
2018-08-09T12:28:00.080Z,622
2018-08-09T12:29:01.994Z,622.2
2018-08-09T12:30:04.169Z,622
2018-08-09T12:31:06.633Z,622
2018-08-09T12:32:08.828Z,622.4
2018-08-09T12:33:11.127Z,622.8
2018-08-09T12:34:13.575Z,622.9
2018-08-09T12:35:15.467Z,623
2018-08-09T12:36:17.376Z,623.8
2018-08-09T12:37:19.550Z,623.3
2018-08-09T12:38:22.015Z,623.7
2018-08-09T12:39:24.450Z,624
2018-08-09T12:40:26.366Z,623.5
2018-08-09T12:41:28.568Z,623.4
2018-08-09T12:42:31.026Z,623.8
2018-08-09T12:43:32.641Z,623.9
2018-08-09T12:44:34.828Z,624
2018-08-09T12:45:37.168Z,624.3
2018-08-09T12:46:39.722Z,623.5
2018-08-09T12:47:42.172Z,624
2018-08-09T12:48:44.627Z,624.1
2018-08-09T12:49:47.073Z,624.1
2018-08-09T12:50:49.807Z,624.1
2018-08-09T12:51:52.001Z,624.4
2018-08-09T12:52:53.914Z,624.3
2018-08-09T12:53:56.119Z,624.7
2018-08-09T12:54:58.576Z,625
2018-08-09T12:56:01.044Z,625.2
2018-08-09T12:57:03.228Z,625
2018-08-09T12:58:05.149Z,625.6
2018-08-09T12:59:07.604Z,625.4
2018-08-09T13:00:10.310Z,625.2
2018-08-09T13:01:11.947Z,625
2018-08-09T13:02:14.101Z,625.2
2018-08-09T13:03:15.990Z,625.1
2018-08-09T13:04:18.443Z,625
2018-08-09T13:05:20.353Z,624.8
2018-08-09T13:06:22.256Z,624.9
2018-08-09T13:07:24.447Z,624.9
2018-08-09T13:08:26.812Z,625.3
2018-08-09T13:09:29.301Z,625
2018-08-09T13:10:31.199Z,625.9
2018-08-09T13:11:33.106Z,625.2
2018-08-09T13:12:35.015Z,625.6
2018-08-09T13:13:37.466Z,625.5
2018-08-09T13:14:39.650Z,625.5
2018-08-09T13:15:42.095Z,625.8
2018-08-09T13:16:44.633Z,625.9
2018-08-09T13:17:45.985Z,625.2
2018-08-09T13:18:48.173Z,625.3
2018-08-09T13:19:50.359Z,625
2018-08-09T13:20:52.795Z,625.1
2018-08-09T13:21:55.262Z,625.4
2018-08-09T13:22:57.717Z,625.7
2018-08-09T13:24:00.170Z,626
2018-08-09T13:25:02.621Z,626.3
2018-08-09T13:26:05.081Z,626.8
2018-08-09T13:27:07.542Z,627
2018-08-09T13:28:12.477Z,627.1